Flight Track Log - Related Links

Times and Time Zones

All times are in EST time to prevent confusion due to time zone crossing. See the N449ND flight status page for this flight to view local times or setup timezone preferences in your user account.

Time Position Orientation Groundspeed Altitude Reporting Facility
EST Latitude Longitude Course Direction KTS km/h feet Rate Location/Type
Thu 09:24:11 27.4925 -80.3403 96° East 87 161 1,200  Level Miami Center
Thu 09:25:11 27.4908 -80.3217 96° East 65 121 1,800 600 Climbing Miami Center
Thu 09:26:11 27.4892 -80.3028 96° East 60 111 2,400 550 Climbing Miami Center
Thu 09:27:11 27.4853 -80.2864 105° East 55 101 2,900 350 Climbing Miami Center
Thu 09:28:11 27.4775 -80.2675 115° Southeast 55 101 3,100 50 Climbing Miami Center
Thu 09:29:11 27.4619 -80.2997 241° Southwest 74 137 3,000 -50 Descending Miami Center
Thu 09:30:11 27.4589 -80.3442 266° West 122 225 3,000  Level Miami Center
Thu 09:31:11 27.4517 -80.3883 260° West 139 257 3,000 -50 Level Miami Center
Thu 09:32:11 27.4444 -80.4278 258° West 144 267 2,900  Descending Miami Center
Thu 09:33:11 27.4372 -80.4628 257° West 144 267 3,000  Climbing Miami Center
Thu 09:34:11 27.4319 -80.5069 262° West 144 267 2,900 -500 Descending Miami Center
Thu 09:35:11 27.4244 -80.5514 259° West 144 267 2,000 -450 Descending Miami Center
Thu 09:36:11 27.4172 -80.5908 258° West 137 254 2,000  Level Miami Center
Thu 09:37:11 27.4100 -80.6303 258° West 132 245 2,000 50 Level Miami Center
Thu 09:38:11 27.4197 -80.6517 297° West 106 196 2,100  Climbing Miami Center
Thu 09:39:11 27.4389 -80.6406 27° Northeast 57 106 2,000 -50 Descending Miami Center
Thu 09:40:11 27.4603 -80.6225 37° Northeast 70 130 2,000  Level Miami Center
Thu 09:41:11 27.4794 -80.6092 32° Northeast 80 148 2,000  Level Miami Center
Thu 09:42:11 27.4986 -80.5911 40° Northeast 80 148 2,000 -100 Level Miami Center
Thu 09:43:11 27.4972 -80.5700 94° East 67 124 1,800 -100 Descending Miami Center
Thu 09:44:11 27.4956 -80.5464 95° East 73 135 1,800  Level Miami Center
Thu 09:45:11 27.4964 -80.5208 88° East 68 126 1,800  Level Miami Center
Thu 09:46:11 27.4969 -80.4975 88° East 68 126 1,800 -50 Level Miami Center
Thu 09:47:11 27.4972 -80.4786 89° East 68 126 1,700 -400 Descending Miami Center
Thu 09:48:11 27.4978 -80.4600 88° East 68 126 1,000 -500 Descending Miami Center
Thu 09:49:11 27.4983 -80.4342 89° East 68 126 700 -200 Descending Miami Center
Thu 09:50:11 27.4969 -80.4108 94° East 68 126 600 -150 Descending Miami Center
Thu 09:51:11 27.4975 -80.3875 88° East 68 126 400 50 Descending Miami Center
Thu 09:52:11 27.4894 -80.3731 122° Southeast 58 108 700 1,300 Climbing Miami Center
Thu 09:53:11 27.4642 -80.3794 193° South 71 132 3,000 650 Climbing Miami Center
Thu 09:54:11 27.4389 -80.3881 197° South 93 172 2,000 -500 Descending Miami Center
Thu 09:55:11 27.4117 -80.3964 195° South 100 185 2,000 3,500 Level Miami Center
Thu 09:56:11 27.4100 -80.3778 96° East 57 106 9,000 3,500 Climbing Miami Center
Thu 09:57:11 27.4147 -80.3592 74° East 56 103 9,000 -3,000 Level Miami Center
Thu 09:58:11 27.4172 -80.3381 82° East 64 119 3,000 -3,000 Descending Miami Center
Thu 09:59:11 27.4422 -80.3367 North 57 106 3,000  Level Miami Center
Thu 10:00:11 27.4711 -80.3561 329° Northwest 96 177 3,000  Level Miami Center
Thu 10:01:11 27.4958 -80.3708 332° Northwest 111 206 3,000 350 Level Miami Center
Thu 10:02:11 27.5206 -80.3881 328° Northwest 111 206 3,700 650 Climbing Miami Center
Thu 10:03:11 27.5450 -80.4100 321° Northwest 105 195 4,300 500 Climbing Miami Center
Thu 10:04:11 27.5697 -80.4225 336° Northwest 100 185 4,700 350 Climbing Miami Center
Thu 10:05:11 27.5944 -80.4350 336° Northwest 94 174 5,000 150 Climbing Miami Center
Thu 10:06:11 27.6192 -80.4522 328° Northwest 100 185 5,000  Level Miami Center
Thu 10:07:11 27.6456 -80.4764 321° Northwest 105 195 5,000 50 Level Miami Center
Thu 10:08:11 27.6767 -80.4914 337° Northwest 110 204 5,100  Climbing Miami Center
Thu 10:09:11 27.6875 -80.4731 56° Northeast 52 97 5,000 -50 Descending Miami Center
Thu 10:10:11 27.6647 -80.4606 154° Southeast 48 89 5,000  Level Miami Center
Thu 10:11:11 27.6706 -80.4794 289° West 28 51 5,000  Level Miami Center
Thu 10:12:11 27.6950 -80.5014 322° Northwest 93 172 5,000  Level Miami Center
Thu 10:13:11 27.6936 -80.4803 94° East 58 108 5,000  Level Miami Center
Thu 10:14:11 27.6772 -80.4608 134° Southeast 68 126 5,000  Level Miami Center
Thu 10:15:11 27.6586 -80.4581 172° South 81 150 5,000  Level Miami Center
Thu 10:16:11 27.6725 -80.4819 303° West 72 134 5,000  Level Miami Center
Thu 10:17:11 27.6972 -80.4967 332° Northwest 86 159 5,000  Level Miami Center
Thu 10:18:11 27.6875 -80.4731 115° Southeast 29 53 5,000  Level Miami Center
Thu 10:19:11 27.6733 -80.4514 126° Southeast 74 137 5,000  Level Miami Center
Thu 10:20:11 27.6583 -80.4650 219° Southwest 64 119 5,000 -50 Level Miami Center
Thu 10:21:12 27.6808 -80.4892 316° Northwest 40 74 4,900  Descending Miami Center
Thu 10:22:11 27.7053 -80.5133 319° Northwest 101 187 5,000 50 Climbing Miami Center
Thu 10:23:11 27.7317 -80.5353 324° Northwest 114 211 5,000 -250 Level Miami Center
Thu 10:24:11 27.7542 -80.5619 314° West 119 220 4,500 -750 Descending Miami Center
Thu 10:25:11 27.7617 -80.5903 287° West 113 209 3,500 -800 Descending Miami Center
Thu 10:26:11 27.7297 -80.6103 209° Southwest 106 196 2,900 -350 Descending Miami Center
Thu 10:27:11 27.7156 -80.5936 134° Southeast 75 138 2,800 -350 Descending Miami Center
Thu 10:28:11 27.7078 -80.5722 112° Southeast 70 130 2,200 -700 Descending Miami Center
Thu 10:29:11 27.7000 -80.5531 115° Southeast 75 138 1,400 -500 Descending Miami Center
Thu 10:30:11 27.6922 -80.5317 112° Southeast 75 138 1,200 -100 Descending Miami Center
Thu 10:31:11 27.6844 -80.5103 112° Southeast 70 130 1,200  Level Miami Center
Thu 10:32:11 27.6786 -80.4914 109° East 70 130 1,200 -200 Level Miami Center
Thu 10:33:11 27.6728 -80.4725 109° East 70 130 800 -400 Descending Miami Center
Thu 10:34:11 27.6650 -80.4536 115° Southeast 70 130 400 -200 Descending Miami Center
Thu 10:35:11 27.6572 -80.4322 112° Southeast 70 130 400 450 Level Miami Center
Thu 10:36:11 27.6514 -80.4108 107° East 70 130 1,300 750 Climbing Miami Center
Thu 10:37:11 27.6475 -80.3944 105° East 65 121 1,900 550 Climbing Miami Center
Thu 10:38:11 27.6439 -80.3778 104° East 60 111 2,400 550 Climbing Miami Center
Thu 10:39:11 27.6422 -80.3592 96° East 60 111 3,000 300 Climbing Miami Center
Thu 10:40:11 27.6367 -80.3308 102° East 76 140 3,000  Level Miami Center
Thu 10:41:11 27.6289 -80.3094 112° Southeast 76 140 3,000  Level Miami Center
Thu 10:42:11 27.5997 -80.3061 174° South 81 150 3,000  Level Miami Center
Thu 10:43:11 27.5725 -80.3031 174° South 104 193 3,000  Level Miami Center
Thu 10:44:11 27.5433 -80.3092 191° South 104 193 3,000  Level Miami Center
Thu 10:45:11 27.5094 -80.3269 205° Southwest 110 204 3,000  Level Miami Center
Thu 10:46:11 27.4797 -80.3400 201° Southwest 115 212 3,000  Level Miami Center
Thu 10:47:11 27.4542 -80.3672 223° Southwest 120 222 3,000  Level Miami Center
Thu 10:48:11 27.4367 -80.3972 237° Southwest 132 245 3,000  Level Miami Center
Thu 10:49:11 27.4314 -80.4417 262° West 132 245 3,000  Level Miami Center
Thu 10:50:11 27.4303 -80.4906 269° West 142 262 3,000  Level Miami Center
Thu 10:51:11 27.4250 -80.5325 262° West 142 262 3,000  Level Miami Center
Thu 10:52:11 27.4197 -80.5744 262° West 142 262 3,000  Level Miami Center
Thu 10:53:11 27.4125 -80.6094 257° West 142 262 3,000  Level Miami Center
Thu 10:54:11 27.4283 -80.6450 297° West 142 262 3,000  Level Miami Center
Thu 10:55:11 27.4536 -80.6317 25° Northeast 76 140 3,000 -400 Level Miami Center
Thu 10:56:11 27.4753 -80.6114 40° Northeast 77 143 2,200 -450 Descending Miami Center
Thu 10:57:11 27.4944 -80.5956 36° Northeast 84 156 2,100 -200 Descending Miami Center
Thu 10:58:11 27.4992 -80.5725 77° East 84 156 1,800 -200 Descending Miami Center
Thu 10:59:11 27.5081 -80.5469 69° East 79 146 1,700 50 Descending Miami Center
Thu 11:00:11 27.5003 -80.5233 110° East 68 126 1,900 50 Climbing Miami Center
Thu 11:01:11 27.4989 -80.4997 94° East 68 126 1,800 -100 Descending Miami Center
Thu 11:02:11 27.4994 -80.4789 88° East 68 126 1,700 -350 Descending Miami Center
Thu 11:03:11 27.4978 -80.4553 95° East 68 126 1,100 -500 Descending Miami Center
Thu 11:04:11 27.4986 -80.4319 88° East 68 126 700 -300 Descending Miami Center
Thu 11:05:11 27.4969 -80.4061 94° East 68 126 500 1,150 Descending Miami Center
Thu 11:06:11 27.4975 -80.3850 88° East 76 140 3,000 2,500 Climbing Miami Center

Login

Don't have an account? Register now (free) for customized features, flight alerts, and more!